Aviation Digital Data Service (ADDS)

Output produced by METARs form (1545 UTC 23 January 2019)
found at http://www.aviationweather.gov/metar/data/
 
METAR text: LWSK 231530Z 00000KT 9999 -RA FEW005 SCT033 OVC070 07/06 Q0998 NOSIG
Conditions at: LWSK (SKOPJE/PETROVAC , MK) observed 1530 UTC 23 January 2019
Temperature: 7.0°C (45°F)
Dewpoint: 6.0°C (43°F) [RH = 93%]
Pressure (altimeter): 29.47 inches Hg (998.0 mb)
Winds: calm
Visibility: 6 or more miles (10+ km)
Ceiling: 7000 feet AGL
Clouds: few clouds at 500 feet AGL
scattered clouds at 3300 feet AGL
overcast cloud deck at 7000 feet AGL
Weather: -RA  (light rain)

METAR text: LWSK 231500Z 00000KT 8000 -RA SCT013 OVC090 07/06 Q0999 NOSIG
Conditions at: LWSK (SKOPJE/PETROVAC , MK) observed 1500 UTC 23 January 2019
Temperature: 7.0°C (45°F)
Dewpoint: 6.0°C (43°F) [RH = 93%]
Pressure (altimeter): 29.50 inches Hg (999.0 mb)
Winds: calm
Visibility: 5 miles ( 8 km)
Ceiling: 9000 feet AGL
Clouds: scattered clouds at 1300 feet AGL
overcast cloud deck at 9000 feet AGL
Weather: -RA  (light rain)

METAR text: LWSK 231430Z 00000KT 8000 -RA FEW013 SCT023 OVC070 07/05 Q0999 NOSIG
Conditions at: LWSK (SKOPJE/PETROVAC , MK) observed 1430 UTC 23 January 2019
Temperature: 7.0°C (45°F)
Dewpoint: 5.0°C (41°F) [RH = 87%]
Pressure (altimeter): 29.50 inches Hg (999.0 mb)
Winds: calm
Visibility: 5 miles ( 8 km)
Ceiling: 7000 feet AGL
Clouds: few clouds at 1300 feet AGL
scattered clouds at 2300 feet AGL
overcast cloud deck at 7000 feet AGL
Weather: -RA  (light rain)

METAR text: LWSK 231400Z 00000KT 8000 -RA FEW013 SCT023 OVC080 08/05 Q0999 NOSIG
Conditions at: LWSK (SKOPJE/PETROVAC , MK) observed 1400 UTC 23 January 2019
Temperature: 8.0°C (46°F)
Dewpoint: 5.0°C (41°F) [RH = 81%]
Pressure (altimeter): 29.50 inches Hg (999.0 mb)
Winds: calm
Visibility: 5 miles ( 8 km)
Ceiling: 8000 feet AGL
Clouds: few clouds at 1300 feet AGL
scattered clouds at 2300 feet AGL
overcast cloud deck at 8000 feet AGL
Weather: -RA  (light rain)

METAR text: LWSK 231330Z 00000KT 9999 -RA FEW013 SCT023 OVC070 08/05 Q1000 NOSIG
Conditions at: LWSK (SKOPJE/PETROVAC , MK) observed 1330 UTC 23 January 2019
Temperature: 8.0°C (46°F)
Dewpoint: 5.0°C (41°F) [RH = 81%]
Pressure (altimeter): 29.53 inches Hg (1000.0 mb)
Winds: calm
Visibility: 6 or more miles (10+ km)
Ceiling: 7000 feet AGL
Clouds: few clouds at 1300 feet AGL
scattered clouds at 2300 feet AGL
overcast cloud deck at 7000 feet AGL
Weather: -RA  (light rain)

METAR text: LWSK 231300Z 00000KT 9999 -RA FEW013 SCT023 OVC070 08/05 Q1000 NOSIG
Conditions at: LWSK (SKOPJE/PETROVAC , MK) observed 1300 UTC 23 January 2019
Temperature: 8.0°C (46°F)
Dewpoint: 5.0°C (41°F) [RH = 81%]
Pressure (altimeter): 29.53 inches Hg (1000.0 mb)
Winds: calm
Visibility: 6 or more miles (10+ km)
Ceiling: 7000 feet AGL
Clouds: few clouds at 1300 feet AGL
scattered clouds at 2300 feet AGL
overcast cloud deck at 7000 feet AGL
Weather: -RA  (light rain)

METAR text: LWSK 231230Z 00000KT 9999 -RA FEW013 SCT033 OVC085 08/05 Q1000 NOSIG
Conditions at: LWSK (SKOPJE/PETROVAC , MK) observed 1230 UTC 23 January 2019
Temperature: 8.0°C (46°F)
Dewpoint: 5.0°C (41°F) [RH = 81%]
Pressure (altimeter): 29.53 inches Hg (1000.0 mb)
Winds: calm
Visibility: 6 or more miles (10+ km)
Ceiling: 8500 feet AGL
Clouds: few clouds at 1300 feet AGL
scattered clouds at 3300 feet AGL
overcast cloud deck at 8500 feet AGL
Weather: -RA  (light rain)

METAR text: LWSK 231200Z 31002KT 9999 FEW023 SCT033 BKN085 08/05 Q1001 NOSIG
Conditions at: LWSK (SKOPJE/PETROVAC , MK) observed 1200 UTC 23 January 2019
Temperature: 8.0°C (46°F)
Dewpoint: 5.0°C (41°F) [RH = 81%]
Pressure (altimeter): 29.56 inches Hg (1001.0 mb)
Winds: from the NW (310 degrees) at 2 MPH (2 knots; 1.0 m/s)
Visibility: 6 or more miles (10+ km)
Ceiling: 8500 feet AGL
Clouds: few clouds at 2300 feet AGL
scattered clouds at 3300 feet AGL
broken clouds at 8500 feet AGL
Weather: no significant weather observed at this time

METAR text: LWSK 231130Z 32002KT 9999 FEW023 SCT033 BKN090 08/05 Q1001 NOSIG
Conditions at: LWSK (SKOPJE/PETROVAC , MK) observed 1130 UTC 23 January 2019
Temperature: 8.0°C (46°F)
Dewpoint: 5.0°C (41°F) [RH = 81%]
Pressure (altimeter): 29.56 inches Hg (1001.0 mb)
Winds: from the NW (320 degrees) at 2 MPH (2 knots; 1.0 m/s)
Visibility: 6 or more miles (10+ km)
Ceiling: 9000 feet AGL
Clouds: few clouds at 2300 feet AGL
scattered clouds at 3300 feet AGL
broken clouds at 9000 feet AGL
Weather: no significant weather observed at this time

METAR text: LWSK 231100Z 32003KT 9999 FEW013 SCT023 BKN100 07/05 Q1002 NOSIG
Conditions at: LWSK (SKOPJE/PETROVAC , MK) observed 1100 UTC 23 January 2019
Temperature: 7.0°C (45°F)
Dewpoint: 5.0°C (41°F) [RH = 87%]
Pressure (altimeter): 29.59 inches Hg (1002.0 mb)
Winds: from the NW (320 degrees) at 3 MPH (3 knots; 1.5 m/s)
Visibility: 6 or more miles (10+ km)
Ceiling: 10000 feet AGL
Clouds: few clouds at 1300 feet AGL
scattered clouds at 2300 feet AGL
broken clouds at 10000 feet AGL
Weather: no significant weather observed at this time

METAR text: LWSK 231030Z 00000KT 7000 FEW013 SCT023 BKN090 07/05 Q1002 NOSIG
Conditions at: LWSK (SKOPJE/PETROVAC , MK) observed 1030 UTC 23 January 2019
Temperature: 7.0°C (45°F)
Dewpoint: 5.0°C (41°F) [RH = 87%]
Pressure (altimeter): 29.59 inches Hg (1002.0 mb)
Winds: calm
Visibility: 4 miles ( 7 km)
Ceiling: 9000 feet AGL
Clouds: few clouds at 1300 feet AGL
scattered clouds at 2300 feet AGL
broken clouds at 9000 feet AGL
Weather: no significant weather observed at this time

METAR text: LWSK 231000Z 28002KT 7000 FEW013 SCT023 BKN090 06/04 Q1003 NOSIG
Conditions at: LWSK (SKOPJE/PETROVAC , MK) observed 1000 UTC 23 January 2019
Temperature: 6.0°C (43°F)
Dewpoint: 4.0°C (39°F) [RH = 87%]
Pressure (altimeter): 29.62 inches Hg (1003.0 mb)
Winds: from the W (280 degrees) at 2 MPH (2 knots; 1.0 m/s)
Visibility: 4 miles ( 7 km)
Ceiling: 9000 feet AGL
Clouds: few clouds at 1300 feet AGL
scattered clouds at 2300 feet AGL
broken clouds at 9000 feet AGL
Weather: no significant weather observed at this time

METAR text: LWSK 230930Z 00000KT 8000 BKN016 OVC033 05/04 Q1004 NOSIG
Conditions at: LWSK (SKOPJE/PETROVAC , MK) observed 0930 UTC 23 January 2019
Temperature: 5.0°C (41°F)
Dewpoint: 4.0°C (39°F) [RH = 93%]
Pressure (altimeter): 29.65 inches Hg (1004.0 mb)
Winds: calm
Visibility: 5 miles ( 8 km)
Ceiling: 1600 feet AGL
Clouds: broken clouds at 1600 feet AGL
overcast cloud deck at 3300 feet AGL
Weather: no significant weather observed at this time

METAR text: LWSK 230900Z 00000KT 8000 BKN016 OVC033 05/04 Q1004 NOSIG
Conditions at: LWSK (SKOPJE/PETROVAC , MK) observed 0900 UTC 23 January 2019
Temperature: 5.0°C (41°F)
Dewpoint: 4.0°C (39°F) [RH = 93%]
Pressure (altimeter): 29.65 inches Hg (1004.0 mb)
Winds: calm
Visibility: 5 miles ( 8 km)
Ceiling: 1600 feet AGL
Clouds: broken clouds at 1600 feet AGL
overcast cloud deck at 3300 feet AGL
Weather: no significant weather observed at this time

METAR text: LWSK 230830Z 00000KT 8000 BKN016 OVC033 05/04 Q1004 NOSIG
Conditions at: LWSK (SKOPJE/PETROVAC , MK) observed 0830 UTC 23 January 2019
Temperature: 5.0°C (41°F)
Dewpoint: 4.0°C (39°F) [RH = 93%]
Pressure (altimeter): 29.65 inches Hg (1004.0 mb)
Winds: calm
Visibility: 5 miles ( 8 km)
Ceiling: 1600 feet AGL
Clouds: broken clouds at 1600 feet AGL
overcast cloud deck at 3300 feet AGL
Weather: no significant weather observed at this time

METAR text: LWSK 230800Z 00000KT 8000 BKN016 OVC033 04/04 Q1004 NOSIG
Conditions at: LWSK (SKOPJE/PETROVAC , MK) observed 0800 UTC 23 January 2019
Temperature: 4.0°C (39°F)
Dewpoint: 4.0°C (39°F) [RH = 100%]
Pressure (altimeter): 29.65 inches Hg (1004.0 mb)
Winds: calm
Visibility: 5 miles ( 8 km)
Ceiling: 1600 feet AGL
Clouds: broken clouds at 1600 feet AGL
overcast cloud deck at 3300 feet AGL
Weather: no significant weather observed at this time

METAR text: LWSK 230730Z 00000KT 8000 BKN013 OVC033 04/04 Q1004 NOSIG
Conditions at: LWSK (SKOPJE/PETROVAC , MK) observed 0730 UTC 23 January 2019
Temperature: 4.0°C (39°F)
Dewpoint: 4.0°C (39°F) [RH = 100%]
Pressure (altimeter): 29.65 inches Hg (1004.0 mb)
Winds: calm
Visibility: 5 miles ( 8 km)
Ceiling: 1300 feet AGL
Clouds: broken clouds at 1300 feet AGL
overcast cloud deck at 3300 feet AGL
Weather: no significant weather observed at this time

METAR text: LWSK 230700Z 00000KT 8000 BKN013 OVC033 04/03 Q1004 NOSIG
Conditions at: LWSK (SKOPJE/PETROVAC , MK) observed 0700 UTC 23 January 2019
Temperature: 4.0°C (39°F)
Dewpoint: 3.0°C (37°F) [RH = 93%]
Pressure (altimeter): 29.65 inches Hg (1004.0 mb)
Winds: calm
Visibility: 5 miles ( 8 km)
Ceiling: 1300 feet AGL
Clouds: broken clouds at 1300 feet AGL
overcast cloud deck at 3300 feet AGL
Weather: no significant weather observed at this time

METAR text: LWSK 230630Z 00000KT 9999 OVC012 04/03 Q1004 NOSIG
Conditions at: LWSK (SKOPJE/PETROVAC , MK) observed 0630 UTC 23 January 2019
Temperature: 4.0°C (39°F)
Dewpoint: 3.0°C (37°F) [RH = 93%]
Pressure (altimeter): 29.65 inches Hg (1004.0 mb)
Winds: calm
Visibility: 6 or more miles (10+ km)
Ceiling: 1200 feet AGL
Clouds: overcast cloud deck at 1200 feet AGL
Weather: no significant weather observed at this time

METAR text: LWSK 230600Z 00000KT 8000 BKN011 04/03 Q1004 NOSIG
Conditions at: LWSK (SKOPJE/PETROVAC , MK) observed 0600 UTC 23 January 2019
Temperature: 4.0°C (39°F)
Dewpoint: 3.0°C (37°F) [RH = 93%]
Pressure (altimeter): 29.65 inches Hg (1004.0 mb)
Winds: calm
Visibility: 5 miles ( 8 km)
Ceiling: 1100 feet AGL
Clouds: broken clouds at 1100 feet AGL
Weather: no significant weather observed at this time

METAR text: LWSK 230530Z 00000KT 6000 BKN011 04/03 Q1004 NOSIG
Conditions at: LWSK (SKOPJE/PETROVAC , MK) observed 0530 UTC 23 January 2019
Temperature: 4.0°C (39°F)
Dewpoint: 3.0°C (37°F) [RH = 93%]
Pressure (altimeter): 29.65 inches Hg (1004.0 mb)
Winds: calm
Visibility: 4 miles ( 6 km)
Ceiling: 1100 feet AGL
Clouds: broken clouds at 1100 feet AGL
Weather: no significant weather observed at this time

METAR text: LWSK 230500Z 00000KT 5000 BR BKN010 04/03 Q1004 NOSIG
Conditions at: LWSK (SKOPJE/PETROVAC , MK) observed 0500 UTC 23 January 2019
Temperature: 4.0°C (39°F)
Dewpoint: 3.0°C (37°F) [RH = 93%]
Pressure (altimeter): 29.65 inches Hg (1004.0 mb)
Winds: calm
Visibility: 3 miles ( 5 km)
Ceiling: 1000 feet AGL
Clouds: broken clouds at 1000 feet AGL
Weather: BR  (mist)

METAR text: LWSK 230430Z 00000KT 4300 BR BKN010 04/03 Q1004 NOSIG
Conditions at: LWSK (SKOPJE/PETROVAC , MK) observed 0430 UTC 23 January 2019
Temperature: 4.0°C (39°F)
Dewpoint: 3.0°C (37°F) [RH = 93%]
Pressure (altimeter): 29.65 inches Hg (1004.0 mb)
Winds: calm
Visibility: 2.67 miles (4.30 km)
Ceiling: 1000 feet AGL
Clouds: broken clouds at 1000 feet AGL
Weather: BR  (mist)

METAR text: LWSK 230400Z 00000KT 4300 BR BKN010 04/03 Q1004 NOSIG
Conditions at: LWSK (SKOPJE/PETROVAC , MK) observed 0400 UTC 23 January 2019
Temperature: 4.0°C (39°F)
Dewpoint: 3.0°C (37°F) [RH = 93%]
Pressure (altimeter): 29.65 inches Hg (1004.0 mb)
Winds: calm
Visibility: 2.67 miles (4.30 km)
Ceiling: 1000 feet AGL
Clouds: broken clouds at 1000 feet AGL
Weather: BR  (mist)

METAR text: LWSK 230330Z 00000KT 4000 BR BKN010 04/03 Q1004 NOSIG
Conditions at: LWSK (SKOPJE/PETROVAC , MK) observed 0330 UTC 23 January 2019
Temperature: 4.0°C (39°F)
Dewpoint: 3.0°C (37°F) [RH = 93%]
Pressure (altimeter): 29.65 inches Hg (1004.0 mb)
Winds: calm
Visibility: 2.49 miles (4.01 km)
Ceiling: 1000 feet AGL
Clouds: broken clouds at 1000 feet AGL
Weather: BR  (mist)

METAR text: LWSK 230300Z 00000KT 4500 BR BKN010 03/02 Q1004 NOSIG
Conditions at: LWSK (SKOPJE/PETROVAC , MK) observed 0300 UTC 23 January 2019
Temperature: 3.0°C (37°F)
Dewpoint: 2.0°C (36°F) [RH = 93%]
Pressure (altimeter): 29.65 inches Hg (1004.0 mb)
Winds: calm
Visibility: 2.80 miles (4.51 km)
Ceiling: 1000 feet AGL
Clouds: broken clouds at 1000 feet AGL
Weather: BR  (mist)

METAR text: LWSK 230230Z 00000KT 3200 BR BKN010 03/02 Q1004 NOSIG
Conditions at: LWSK (SKOPJE/PETROVAC , MK) observed 0230 UTC 23 January 2019
Temperature: 3.0°C (37°F)
Dewpoint: 2.0°C (36°F) [RH = 93%]
Pressure (altimeter): 29.65 inches Hg (1004.0 mb)
Winds: calm
Visibility: 1.99 miles (3.20 km)
Ceiling: 1000 feet AGL
Clouds: broken clouds at 1000 feet AGL
Weather: BR  (mist)

METAR text: LWSK 230200Z 00000KT 3200 BR BKN010 03/02 Q1004 NOSIG
Conditions at: LWSK (SKOPJE/PETROVAC , MK) observed 0200 UTC 23 January 2019
Temperature: 3.0°C (37°F)
Dewpoint: 2.0°C (36°F) [RH = 93%]
Pressure (altimeter): 29.65 inches Hg (1004.0 mb)
Winds: calm
Visibility: 1.99 miles (3.20 km)
Ceiling: 1000 feet AGL
Clouds: broken clouds at 1000 feet AGL
Weather: BR  (mist)

METAR text: LWSK 230130Z 00000KT 5000 BR BKN010 04/03 Q1005 NOSIG
Conditions at: LWSK (SKOPJE/PETROVAC , MK) observed 0130 UTC 23 January 2019
Temperature: 4.0°C (39°F)
Dewpoint: 3.0°C (37°F) [RH = 93%]
Pressure (altimeter): 29.68 inches Hg (1005.0 mb)
Winds: calm
Visibility: 3 miles ( 5 km)
Ceiling: 1000 feet AGL
Clouds: broken clouds at 1000 feet AGL
Weather: BR  (mist)

METAR text: LWSK 230100Z 00000KT 5000 BR BKN010 04/03 Q1005 NOSIG
Conditions at: LWSK (SKOPJE/PETROVAC , MK) observed 0100 UTC 23 January 2019
Temperature: 4.0°C (39°F)
Dewpoint: 3.0°C (37°F) [RH = 93%]
Pressure (altimeter): 29.68 inches Hg (1005.0 mb)
Winds: calm
Visibility: 3 miles ( 5 km)
Ceiling: 1000 feet AGL
Clouds: broken clouds at 1000 feet AGL
Weather: BR  (mist)

METAR text: LWSK 230030Z 00000KT 5000 BR BKN013 03/02 Q1005 NOSIG
Conditions at: LWSK (SKOPJE/PETROVAC , MK) observed 0030 UTC 23 January 2019
Temperature: 3.0°C (37°F)
Dewpoint: 2.0°C (36°F) [RH = 93%]
Pressure (altimeter): 29.68 inches Hg (1005.0 mb)
Winds: calm
Visibility: 3 miles ( 5 km)
Ceiling: 1300 feet AGL
Clouds: broken clouds at 1300 feet AGL
Weather: BR  (mist)

METAR text: LWSK 230000Z 33003KT 3800 BR BKN013 03/02 Q1005 NOSIG
Conditions at: LWSK (SKOPJE/PETROVAC , MK) observed 0000 UTC 23 January 2019
Temperature: 3.0°C (37°F)
Dewpoint: 2.0°C (36°F) [RH = 93%]
Pressure (altimeter): 29.68 inches Hg (1005.0 mb)
Winds: from the NNW (330 degrees) at 3 MPH (3 knots; 1.5 m/s)
Visibility: 2.36 miles (3.80 km)
Ceiling: 1300 feet AGL
Clouds: broken clouds at 1300 feet AGL
Weather: BR  (mist)

METAR text: LWSK 222330Z 00000KT 3900 BR BKN013 03/02 Q1005 NOSIG
Conditions at: LWSK (SKOPJE/PETROVAC , MK) observed 2330 UTC 22 January 2019
Temperature: 3.0°C (37°F)
Dewpoint: 2.0°C (36°F) [RH = 93%]
Pressure (altimeter): 29.68 inches Hg (1005.0 mb)
Winds: calm
Visibility: 2.42 miles (3.89 km)
Ceiling: 1300 feet AGL
Clouds: broken clouds at 1300 feet AGL
Weather: BR  (mist)

METAR text: LWSK 222300Z 00000KT 4800 BR BKN013 03/02 Q1005 NOSIG
Conditions at: LWSK (SKOPJE/PETROVAC , MK) observed 2300 UTC 22 January 2019
Temperature: 3.0°C (37°F)
Dewpoint: 2.0°C (36°F) [RH = 93%]
Pressure (altimeter): 29.68 inches Hg (1005.0 mb)
Winds: calm
Visibility: 2.98 miles (4.80 km)
Ceiling: 1300 feet AGL
Clouds: broken clouds at 1300 feet AGL
Weather: BR  (mist)

METAR text: LWSK 222230Z 26002KT 5000 BR BKN011 04/03 Q1005 NOSIG
Conditions at: LWSK (SKOPJE/PETROVAC , MK) observed 2230 UTC 22 January 2019
Temperature: 4.0°C (39°F)
Dewpoint: 3.0°C (37°F) [RH = 93%]
Pressure (altimeter): 29.68 inches Hg (1005.0 mb)
Winds: from the W (260 degrees) at 2 MPH (2 knots; 1.0 m/s)
Visibility: 3 miles ( 5 km)
Ceiling: 1100 feet AGL
Clouds: broken clouds at 1100 feet AGL
Weather: BR  (mist)

METAR text: LWSK 222200Z 00000KT 7000 SCT015 BKN030 04/03 Q1005 NOSIG
Conditions at: LWSK (SKOPJE/PETROVAC , MK) observed 2200 UTC 22 January 2019
Temperature: 4.0°C (39°F)
Dewpoint: 3.0°C (37°F) [RH = 93%]
Pressure (altimeter): 29.68 inches Hg (1005.0 mb)
Winds: calm
Visibility: 4 miles ( 7 km)
Ceiling: 3000 feet AGL
Clouds: scattered clouds at 1500 feet AGL
broken clouds at 3000 feet AGL
Weather: no significant weather observed at this time

METAR text: LWSK 222130Z 17007KT 130V190 9999 BKN033 06/04 Q1006 NOSIG
Conditions at: LWSK (SKOPJE/PETROVAC , MK) observed 2130 UTC 22 January 2019
Temperature: 6.0°C (43°F)
Dewpoint: 4.0°C (39°F) [RH = 87%]
Pressure (altimeter): 29.70 inches Hg (1006.0 mb)
Winds: from the S (170 degrees) at 8 MPH (7 knots; 3.6 m/s)
Visibility: 6 or more miles (10+ km)
Ceiling: 3300 feet AGL
Clouds: broken clouds at 3300 feet AGL
Weather: no significant weather observed at this time

METAR text: LWSK 222100Z 18004KT 140V220 9999 BKN050 06/04 Q1006 NOSIG
Conditions at: LWSK (SKOPJE/PETROVAC , MK) observed 2100 UTC 22 January 2019
Temperature: 6.0°C (43°F)
Dewpoint: 4.0°C (39°F) [RH = 87%]
Pressure (altimeter): 29.70 inches Hg (1006.0 mb)
Winds: from the S (180 degrees) at 5 MPH (4 knots; 2.1 m/s)
Visibility: 6 or more miles (10+ km)
Ceiling: 5000 feet AGL
Clouds: broken clouds at 5000 feet AGL
Weather: no significant weather observed at this time

METAR text: LWSK 222030Z 16004KT 9999 BKN050 06/04 Q1006 NOSIG
Conditions at: LWSK (SKOPJE/PETROVAC , MK) observed 2030 UTC 22 January 2019
Temperature: 6.0°C (43°F)
Dewpoint: 4.0°C (39°F) [RH = 87%]
Pressure (altimeter): 29.70 inches Hg (1006.0 mb)
Winds: from the SSE (160 degrees) at 5 MPH (4 knots; 2.1 m/s)
Visibility: 6 or more miles (10+ km)
Ceiling: 5000 feet AGL
Clouds: broken clouds at 5000 feet AGL
Weather: no significant weather observed at this time

METAR text: LWSK 222000Z 17005KT 130V220 9999 BKN050 06/04 Q1006 NOSIG
Conditions at: LWSK (SKOPJE/PETROVAC , MK) observed 2000 UTC 22 January 2019
Temperature: 6.0°C (43°F)
Dewpoint: 4.0°C (39°F) [RH = 87%]
Pressure (altimeter): 29.70 inches Hg (1006.0 mb)
Winds: from the S (170 degrees) at 6 MPH (5 knots; 2.6 m/s)
Visibility: 6 or more miles (10+ km)
Ceiling: 5000 feet AGL
Clouds: broken clouds at 5000 feet AGL
Weather: no significant weather observed at this time

METAR text: LWSK 221930Z 17004KT 110V200 9999 SCT033 OVC050 06/04 Q1006 NOSIG
Conditions at: LWSK (SKOPJE/PETROVAC , MK) observed 1930 UTC 22 January 2019
Temperature: 6.0°C (43°F)
Dewpoint: 4.0°C (39°F) [RH = 87%]
Pressure (altimeter): 29.70 inches Hg (1006.0 mb)
Winds: from the S (170 degrees) at 5 MPH (4 knots; 2.1 m/s)
Visibility: 6 or more miles (10+ km)
Ceiling: 5000 feet AGL
Clouds: scattered clouds at 3300 feet AGL
overcast cloud deck at 5000 feet AGL
Weather: no significant weather observed at this time

METAR text: LWSK 221900Z 16005KT 110V210 9999 SCT033 OVC050 06/04 Q1006 NOSIG
Conditions at: LWSK (SKOPJE/PETROVAC , MK) observed 1900 UTC 22 January 2019
Temperature: 6.0°C (43°F)
Dewpoint: 4.0°C (39°F) [RH = 87%]
Pressure (altimeter): 29.70 inches Hg (1006.0 mb)
Winds: from the SSE (160 degrees) at 6 MPH (5 knots; 2.6 m/s)
Visibility: 6 or more miles (10+ km)
Ceiling: 5000 feet AGL
Clouds: scattered clouds at 3300 feet AGL
overcast cloud deck at 5000 feet AGL
Weather: no significant weather observed at this time

METAR text: LWSK 221830Z 14011KT 130V210 9999 SCT040 OVC056 07/04 Q1006 NOSIG
Conditions at: LWSK (SKOPJE/PETROVAC , MK) observed 1830 UTC 22 January 2019
Temperature: 7.0°C (45°F)
Dewpoint: 4.0°C (39°F) [RH = 81%]
Pressure (altimeter): 29.70 inches Hg (1006.0 mb)
Winds: from the SE (140 degrees) at 13 MPH (11 knots; 5.7 m/s)
Visibility: 6 or more miles (10+ km)
Ceiling: 5600 feet AGL
Clouds: scattered clouds at 4000 feet AGL
overcast cloud deck at 5600 feet AGL
Weather: no significant weather observed at this time

METAR text: LWSK 221800Z 14012KT 9999 DZ SCT040 OVC056 06/04 Q1006 NOSIG
Conditions at: LWSK (SKOPJE/PETROVAC , MK) observed 1800 UTC 22 January 2019
Temperature: 6.0°C (43°F)
Dewpoint: 4.0°C (39°F) [RH = 87%]
Pressure (altimeter): 29.70 inches Hg (1006.0 mb)
Winds: from the SE (140 degrees) at 14 MPH (12 knots; 6.2 m/s)
Visibility: 6 or more miles (10+ km)
Ceiling: 5600 feet AGL
Clouds: scattered clouds at 4000 feet AGL
overcast cloud deck at 5600 feet AGL
Weather: DZ  (moderate drizzle)

METAR text: LWSK 221730Z 14012KT 9999 DZ SCT026 OVC043 06/04 Q1007 NOSIG
Conditions at: LWSK (SKOPJE/PETROVAC , MK) observed 1730 UTC 22 January 2019
Temperature: 6.0°C (43°F)
Dewpoint: 4.0°C (39°F) [RH = 87%]
Pressure (altimeter): 29.73 inches Hg (1007.0 mb)
Winds: from the SE (140 degrees) at 14 MPH (12 knots; 6.2 m/s)
Visibility: 6 or more miles (10+ km)
Ceiling: 4300 feet AGL
Clouds: scattered clouds at 2600 feet AGL
overcast cloud deck at 4300 feet AGL
Weather: DZ  (moderate drizzle)

METAR text: LWSK 221700Z 15011KT 120V180 9999 DZ SCT030 OVC050 06/04 Q1007 NOSIG
Conditions at: LWSK (SKOPJE/PETROVAC , MK) observed 1700 UTC 22 January 2019
Temperature: 6.0°C (43°F)
Dewpoint: 4.0°C (39°F) [RH = 87%]
Pressure (altimeter): 29.73 inches Hg (1007.0 mb)
Winds: from the SSE (150 degrees) at 13 MPH (11 knots; 5.7 m/s)
Visibility: 6 or more miles (10+ km)
Ceiling: 5000 feet AGL
Clouds: scattered clouds at 3000 feet AGL
overcast cloud deck at 5000 feet AGL
Weather: DZ  (moderate drizzle)

METAR text: LWSK 221630Z 14011KT 9999 DZ SCT030 OVC060 06/04 Q1007 NOSIG
Conditions at: LWSK (SKOPJE/PETROVAC , MK) observed 1630 UTC 22 January 2019
Temperature: 6.0°C (43°F)
Dewpoint: 4.0°C (39°F) [RH = 87%]
Pressure (altimeter): 29.73 inches Hg (1007.0 mb)
Winds: from the SE (140 degrees) at 13 MPH (11 knots; 5.7 m/s)
Visibility: 6 or more miles (10+ km)
Ceiling: 6000 feet AGL
Clouds: scattered clouds at 3000 feet AGL
overcast cloud deck at 6000 feet AGL
Weather: DZ  (moderate drizzle)

METAR text: LWSK 221600Z 15007KT 9999 DZ SCT023 OVC050 06/05 Q1007 NOSIG
Conditions at: LWSK (SKOPJE/PETROVAC , MK) observed 1600 UTC 22 January 2019
Temperature: 6.0°C (43°F)
Dewpoint: 5.0°C (41°F) [RH = 93%]
Pressure (altimeter): 29.73 inches Hg (1007.0 mb)
Winds: from the SSE (150 degrees) at 8 MPH (7 knots; 3.6 m/s)
Visibility: 6 or more miles (10+ km)
Ceiling: 5000 feet AGL
Clouds: scattered clouds at 2300 feet AGL
overcast cloud deck at 5000 feet AGL
Weather: DZ  (moderate drizzle)

METAR text: LWSK 221530Z 16007KT 140V210 9999 -DZ SCT023 OVC050 07/05 Q1008 NOSIG
Conditions at: LWSK (SKOPJE/PETROVAC , MK) observed 1530 UTC 22 January 2019
Temperature: 7.0°C (45°F)
Dewpoint: 5.0°C (41°F) [RH = 87%]
Pressure (altimeter): 29.76 inches Hg (1008.0 mb)
Winds: from the SSE (160 degrees) at 8 MPH (7 knots; 3.6 m/s)
Visibility: 6 or more miles (10+ km)
Ceiling: 5000 feet AGL
Clouds: scattered clouds at 2300 feet AGL
overcast cloud deck at 5000 feet AGL
Weather: -DZ  (light drizzle)

METAR text: LWSK 221500Z 15008KT 130V210 9999 SCT026 OVC050 07/04 Q1008 NOSIG
Conditions at: LWSK (SKOPJE/PETROVAC , MK) observed 1500 UTC 22 January 2019
Temperature: 7.0°C (45°F)
Dewpoint: 4.0°C (39°F) [RH = 81%]
Pressure (altimeter): 29.76 inches Hg (1008.0 mb)
Winds: from the SSE (150 degrees) at 9 MPH (8 knots; 4.1 m/s)
Visibility: 6 or more miles (10+ km)
Ceiling: 5000 feet AGL
Clouds: scattered clouds at 2600 feet AGL
overcast cloud deck at 5000 feet AGL
Weather: no significant weather observed at this time

METAR text: LWSK 221430Z 16008KT 130V190 9999 SCT026 OVC050 07/05 Q1008 NOSIG
Conditions at: LWSK (SKOPJE/PETROVAC , MK) observed 1430 UTC 22 January 2019
Temperature: 7.0°C (45°F)
Dewpoint: 5.0°C (41°F) [RH = 87%]
Pressure (altimeter): 29.76 inches Hg (1008.0 mb)
Winds: from the SSE (160 degrees) at 9 MPH (8 knots; 4.1 m/s)
Visibility: 6 or more miles (10+ km)
Ceiling: 5000 feet AGL
Clouds: scattered clouds at 2600 feet AGL
overcast cloud deck at 5000 feet AGL
Weather: no significant weather observed at this time

METAR text: LWSK 221400Z 00000KT 5000 BR SCT026 OVC050 06/04 Q1009 NOSIG
Conditions at: LWSK (SKOPJE/PETROVAC , MK) observed 1400 UTC 22 January 2019
Temperature: 6.0°C (43°F)
Dewpoint: 4.0°C (39°F) [RH = 87%]
Pressure (altimeter): 29.79 inches Hg (1009.0 mb)
Winds: calm
Visibility: 3 miles ( 5 km)
Ceiling: 5000 feet AGL
Clouds: scattered clouds at 2600 feet AGL
overcast cloud deck at 5000 feet AGL
Weather: BR  (mist)

METAR text: LWSK 221330Z 30002KT 4000 BR SCT030 OVC053 05/03 Q1009 NOSIG
Conditions at: LWSK (SKOPJE/PETROVAC , MK) observed 1330 UTC 22 January 2019
Temperature: 5.0°C (41°F)
Dewpoint: 3.0°C (37°F) [RH = 87%]
Pressure (altimeter): 29.79 inches Hg (1009.0 mb)
Winds: from the WNW (300 degrees) at 2 MPH (2 knots; 1.0 m/s)
Visibility: 2.49 miles (4.01 km)
Ceiling: 5300 feet AGL
Clouds: scattered clouds at 3000 feet AGL
overcast cloud deck at 5300 feet AGL
Weather: BR  (mist)

METAR text: LWSK 221300Z 24002KT 4000 BR SCT020 OVC053 05/04 Q1010 NOSIG
Conditions at: LWSK (SKOPJE/PETROVAC , MK) observed 1300 UTC 22 January 2019
Temperature: 5.0°C (41°F)
Dewpoint: 4.0°C (39°F) [RH = 93%]
Pressure (altimeter): 29.82 inches Hg (1010.0 mb)
Winds: from the WSW (240 degrees) at 2 MPH (2 knots; 1.0 m/s)
Visibility: 2.49 miles (4.01 km)
Ceiling: 5300 feet AGL
Clouds: scattered clouds at 2000 feet AGL
overcast cloud deck at 5300 feet AGL
Weather: BR  (mist)

METAR text: LWSK 221230Z 24003KT 4500 BR FEW014 OVC030 06/04 Q1010 NOSIG
Conditions at: LWSK (SKOPJE/PETROVAC , MK) observed 1230 UTC 22 January 2019
Temperature: 6.0°C (43°F)
Dewpoint: 4.0°C (39°F) [RH = 87%]
Pressure (altimeter): 29.82 inches Hg (1010.0 mb)
Winds: from the WSW (240 degrees) at 3 MPH (3 knots; 1.5 m/s)
Visibility: 2.80 miles (4.51 km)
Ceiling: 3000 feet AGL
Clouds: few clouds at 1400 feet AGL
overcast cloud deck at 3000 feet AGL
Weather: BR  (mist)

METAR text: LWSK 221200Z 35002KT 3000 BR FEW014 OVC030 05/04 Q1011 NOSIG
Conditions at: LWSK (SKOPJE/PETROVAC , MK) observed 1200 UTC 22 January 2019
Temperature: 5.0°C (41°F)
Dewpoint: 4.0°C (39°F) [RH = 93%]
Pressure (altimeter): 29.85 inches Hg (1011.0 mb)
Winds: from the N (350 degrees) at 2 MPH (2 knots; 1.0 m/s)
Visibility: 1.86 miles (2.99 km)
Ceiling: 3000 feet AGL
Clouds: few clouds at 1400 feet AGL
overcast cloud deck at 3000 feet AGL
Weather: BR  (mist)

METAR text: LWSK 221130Z 24001KT 3000 BR OVC014 05/03 Q1012 NOSIG
Conditions at: LWSK (SKOPJE/PETROVAC , MK) observed 1130 UTC 22 January 2019
Temperature: 5.0°C (41°F)
Dewpoint: 3.0°C (37°F) [RH = 87%]
Pressure (altimeter): 29.88 inches Hg (1012.0 mb)
Winds: from the WSW (240 degrees) at 1 MPH (1 knots; 0.5 m/s)
Visibility: 1.86 miles (2.99 km)
Ceiling: 1400 feet AGL
Clouds: overcast cloud deck at 1400 feet AGL
Weather: BR  (mist)

METAR text: LWSK 221100Z 00000KT 3000 BR OVC013 04/03 Q1012 NOSIG
Conditions at: LWSK (SKOPJE/PETROVAC , MK) observed 1100 UTC 22 January 2019
Temperature: 4.0°C (39°F)
Dewpoint: 3.0°C (37°F) [RH = 93%]
Pressure (altimeter): 29.88 inches Hg (1012.0 mb)
Winds: calm
Visibility: 1.86 miles (2.99 km)
Ceiling: 1300 feet AGL
Clouds: overcast cloud deck at 1300 feet AGL
Weather: BR  (mist)

METAR text: LWSK 221030Z 00000KT 3000 BR OVC013 04/03 Q1012 NOSIG
Conditions at: LWSK (SKOPJE/PETROVAC , MK) observed 1030 UTC 22 January 2019
Temperature: 4.0°C (39°F)
Dewpoint: 3.0°C (37°F) [RH = 93%]
Pressure (altimeter): 29.88 inches Hg (1012.0 mb)
Winds: calm
Visibility: 1.86 miles (2.99 km)
Ceiling: 1300 feet AGL
Clouds: overcast cloud deck at 1300 feet AGL
Weather: BR  (mist)

METAR text: LWSK 221000Z 00000KT 3000 BR OVC012 03/02 Q1013 NOSIG
Conditions at: LWSK (SKOPJE/PETROVAC , MK) observed 1000 UTC 22 January 2019
Temperature: 3.0°C (37°F)
Dewpoint: 2.0°C (36°F) [RH = 93%]
Pressure (altimeter): 29.91 inches Hg (1013.0 mb)
Winds: calm
Visibility: 1.86 miles (2.99 km)
Ceiling: 1200 feet AGL
Clouds: overcast cloud deck at 1200 feet AGL
Weather: BR  (mist)

METAR text: LWSK 220930Z VRB01KT 3400 BR OVC010 03/02 Q1014 NOSIG
Conditions at: LWSK (SKOPJE/PETROVAC , MK) observed 0930 UTC 22 January 2019
Temperature: 3.0°C (37°F)
Dewpoint: 2.0°C (36°F) [RH = 93%]
Pressure (altimeter): 29.94 inches Hg (1014.0 mb)
Winds: variable direction winds at 1 MPH (1 knots; 0.5 m/s)
Visibility: 2.11 miles (3.40 km)
Ceiling: 1000 feet AGL
Clouds: overcast cloud deck at 1000 feet AGL
Weather: BR  (mist)

METAR text: LWSK 220900Z VRB01KT 3300 -DZ BR OVC012 03/02 Q1014 NOSIG
Conditions at: LWSK (SKOPJE/PETROVAC , MK) observed 0900 UTC 22 January 2019
Temperature: 3.0°C (37°F)
Dewpoint: 2.0°C (36°F) [RH = 93%]
Pressure (altimeter): 29.94 inches Hg (1014.0 mb)
Winds: variable direction winds at 1 MPH (1 knots; 0.5 m/s)
Visibility: 2.05 miles (3.30 km)
Ceiling: 1200 feet AGL
Clouds: overcast cloud deck at 1200 feet AGL
Weather: -DZ BR  (light drizzle, mist)

METAR text: LWSK 220830Z VRB01KT 2700 RA BR OVC012 02/02 Q1014 NOSIG
Conditions at: LWSK (SKOPJE/PETROVAC , MK) observed 0830 UTC 22 January 2019
Temperature: 2.0°C (36°F)
Dewpoint: 2.0°C (36°F) [RH = 100%]
Pressure (altimeter): 29.94 inches Hg (1014.0 mb)
Winds: variable direction winds at 1 MPH (1 knots; 0.5 m/s)
Visibility: 1.68 miles (2.70 km)
Ceiling: 1200 feet AGL
Clouds: overcast cloud deck at 1200 feet AGL
Weather: RA BR  (moderate rain, mist)

METAR text: LWSK 220800Z VRB01KT 2000 -RA OVC012 02/01 Q1014 NOSIG
Conditions at: LWSK (SKOPJE/PETROVAC , MK) observed 0800 UTC 22 January 2019
Temperature: 2.0°C (36°F)
Dewpoint: 1.0°C (34°F) [RH = 93%]
Pressure (altimeter): 29.94 inches Hg (1014.0 mb)
Winds: variable direction winds at 1 MPH (1 knots; 0.5 m/s)
Visibility: 1.24 miles (2.00 km)
Ceiling: 1200 feet AGL
Clouds: overcast cloud deck at 1200 feet AGL
Weather: -RA  (light rain)

METAR text: LWSK 220730Z VRB01KT 4000 DZ OVC012 02/01 Q1014 NOSIG
Conditions at: LWSK (SKOPJE/PETROVAC , MK) observed 0730 UTC 22 January 2019
Temperature: 2.0°C (36°F)
Dewpoint: 1.0°C (34°F) [RH = 93%]
Pressure (altimeter): 29.94 inches Hg (1014.0 mb)
Winds: variable direction winds at 1 MPH (1 knots; 0.5 m/s)
Visibility: 2.49 miles (4.01 km)
Ceiling: 1200 feet AGL
Clouds: overcast cloud deck at 1200 feet AGL
Weather: DZ  (moderate drizzle)

METAR text: LWSK 220700Z 00000KT 4000 -DZ OVC013 02/01 Q1015 NOSIG
Conditions at: LWSK (SKOPJE/PETROVAC , MK) observed 0700 UTC 22 January 2019
Temperature: 2.0°C (36°F)
Dewpoint: 1.0°C (34°F) [RH = 93%]
Pressure (altimeter): 29.97 inches Hg (1015.0 mb)
Winds: calm
Visibility: 2.49 miles (4.01 km)
Ceiling: 1300 feet AGL
Clouds: overcast cloud deck at 1300 feet AGL
Weather: -DZ  (light drizzle)

METAR text: LWSK 220630Z 00000KT 4100 -DZ OVC013 02/01 Q1014 NOSIG
Conditions at: LWSK (SKOPJE/PETROVAC , MK) observed 0630 UTC 22 January 2019
Temperature: 2.0°C (36°F)
Dewpoint: 1.0°C (34°F) [RH = 93%]
Pressure (altimeter): 29.94 inches Hg (1014.0 mb)
Winds: calm
Visibility: 2.55 miles (4.10 km)
Ceiling: 1300 feet AGL
Clouds: overcast cloud deck at 1300 feet AGL
Weather: -DZ  (light drizzle)

METAR text: LWSK 220600Z 00000KT 5000 BR OVC012 02/01 Q1015 NOSIG
Conditions at: LWSK (SKOPJE/PETROVAC , MK) observed 0600 UTC 22 January 2019
Temperature: 2.0°C (36°F)
Dewpoint: 1.0°C (34°F) [RH = 93%]
Pressure (altimeter): 29.97 inches Hg (1015.0 mb)
Winds: calm
Visibility: 3 miles ( 5 km)
Ceiling: 1200 feet AGL
Clouds: overcast cloud deck at 1200 feet AGL
Weather: BR  (mist)

METAR text: LWSK 220530Z 00000KT 7000 SCT010 OVC022 02/01 Q1015 NOSIG
Conditions at: LWSK (SKOPJE/PETROVAC , MK) observed 0530 UTC 22 January 2019
Temperature: 2.0°C (36°F)
Dewpoint: 1.0°C (34°F) [RH = 93%]
Pressure (altimeter): 29.97 inches Hg (1015.0 mb)
Winds: calm
Visibility: 4 miles ( 7 km)
Ceiling: 2200 feet AGL
Clouds: scattered clouds at 1000 feet AGL
overcast cloud deck at 2200 feet AGL
Weather: no significant weather observed at this time

METAR text: LWSK 220500Z 00000KT 7000 FEW010 OVC022 02/01 Q1015 NOSIG
Conditions at: LWSK (SKOPJE/PETROVAC , MK) observed 0500 UTC 22 January 2019
Temperature: 2.0°C (36°F)
Dewpoint: 1.0°C (34°F) [RH = 93%]
Pressure (altimeter): 29.97 inches Hg (1015.0 mb)
Winds: calm
Visibility: 4 miles ( 7 km)
Ceiling: 2200 feet AGL
Clouds: few clouds at 1000 feet AGL
overcast cloud deck at 2200 feet AGL
Weather: no significant weather observed at this time

METAR text: LWSK 220430Z 00000KT 7000 FEW010 OVC022 02/01 Q1015 NOSIG
Conditions at: LWSK (SKOPJE/PETROVAC , MK) observed 0430 UTC 22 January 2019
Temperature: 2.0°C (36°F)
Dewpoint: 1.0°C (34°F) [RH = 93%]
Pressure (altimeter): 29.97 inches Hg (1015.0 mb)
Winds: calm
Visibility: 4 miles ( 7 km)
Ceiling: 2200 feet AGL
Clouds: few clouds at 1000 feet AGL
overcast cloud deck at 2200 feet AGL
Weather: no significant weather observed at this time

METAR text: LWSK 220400Z 00000KT 7000 FEW010 OVC022 02/01 Q1015 NOSIG
Conditions at: LWSK (SKOPJE/PETROVAC , MK) observed 0400 UTC 22 January 2019
Temperature: 2.0°C (36°F)
Dewpoint: 1.0°C (34°F) [RH = 93%]
Pressure (altimeter): 29.97 inches Hg (1015.0 mb)
Winds: calm
Visibility: 4 miles ( 7 km)
Ceiling: 2200 feet AGL
Clouds: few clouds at 1000 feet AGL
overcast cloud deck at 2200 feet AGL
Weather: no significant weather observed at this time

Forecast for: LWSK (SKOPJE/PETROVAC , MK)
Text: TAF LWSK 231430Z 2315/2415 VRB02KT 9999 SCT020 BKN040 OVC070
Forecast period: 1500 UTC 23 January 2019 to 1500 UTC 24 January 2019
Forecast type: FROM: standard forecast or significant change
Winds: variable direction winds at 2 MPH (2 knots; 1.0 m/s)
Visibility: 6 or more miles 10+ km)
Ceiling: 4000 feet AGL
Clouds: scattered clouds at 2000 feet AGL
broken clouds at 4000 feet AGL
overcast cloud deck at 7000 feet AGL
Weather: no significant weather forecast for this period
Text: TEMPO 2315/2321 15010KT 5000 RA BKN015 OVC035
Forecast period: 1500 to 2100 UTC 23 January 2019
Forecast type: TEMPORARY: The following changes expected for less than half the time period
Winds: from the SSE (150 degrees) at 12 MPH (10 knots; 5.1 m/s)
Visibility: 3 miles (5 km)
Ceiling: 1500 feet AGL
Clouds: broken clouds at 1500 feet AGL
overcast cloud deck at 3500 feet AGL
Weather: RA  (moderate rain)
Text: PROB30
Forecast period: 2100 UTC 23 January 2019 to 0300 UTC 24 January 2019
Forecast type: TEMPORARY: The following changes expected for less than half the time period
Visibility: 1.86 miles (2.99 km)
Ceiling: 2500 feet AGL
Clouds: overcast cloud deck at 2500 feet AGL
Weather: RA SN  (moderate rain, moderate snow)
Text: TEMPO 2321/2403 3000 RASN OVC025
Forecast period: 0600 to 1100 UTC 24 January 2019
Forecast type: TEMPORARY: The following changes expected for less than half the time period
Winds: from the NNW (340 degrees) at 9 MPH (8 knots; 4.1 m/s)
Visibility: 3 miles (5 km)
Ceiling: 3500 feet AGL
Clouds: scattered clouds at 1500 feet AGL
overcast cloud deck at 3500 feet AGL
Weather: RA  (moderate rain)